sensor_id;sensor_type;location;lat;lon;timestamp;pressure;altitude;pressure_sealevel;temperature;humidity
50226;BME280;36113;50.742;6.432;2023-10-08T00:00:43;99522.66;;;17.15;59.68
50226;BME280;36113;50.742;6.432;2023-10-08T00:03:11;99498.38;;;17.03;59.50
50226;BME280;36113;50.742;6.432;2023-10-08T00:05:38;99523.78;;;17.14;59.95
50226;BME280;36113;50.742;6.432;2023-10-08T00:08:04;99528.81;;;17.07;60.13
50226;BME280;36113;50.742;6.432;2023-10-08T00:10:39;99526.56;;;17.09;59.99
50226;BME280;36113;50.742;6.432;2023-10-08T00:13:09;99516.41;;;16.90;59.96
50226;BME280;36113;50.742;6.432;2023-10-08T00:15:38;99536.31;;;17.01;59.98
50226;BME280;36113;50.742;6.432;2023-10-08T00:18:14;99515.59;;;16.90;60.39
50226;BME280;36113;50.742;6.432;2023-10-08T00:20:40;99512.44;;;16.77;60.18
50226;BME280;36113;50.742;6.432;2023-10-08T00:23:40;99538.16;;;16.87;60.36
50226;BME280;36113;50.742;6.432;2023-10-08T00:26:25;99548.75;;;16.93;60.48
50226;BME280;36113;50.742;6.432;2023-10-08T00:28:56;99542.53;;;16.88;60.49
50226;BME280;36113;50.742;6.432;2023-10-08T00:31:21;99552.72;;;16.87;60.46
50226;BME280;36113;50.742;6.432;2023-10-08T00:33:50;99527.03;;;16.73;60.65
50226;BME280;36113;50.742;6.432;2023-10-08T00:36:16;99537.69;;;16.80;60.27
50226;BME280;36113;50.742;6.432;2023-10-08T00:38:46;99556.63;;;16.81;60.58
50226;BME280;36113;50.742;6.432;2023-10-08T00:41:14;99553.28;;;16.84;60.64
50226;BME280;36113;50.742;6.432;2023-10-08T00:43:40;99513.75;;;16.61;60.35
50226;BME280;36113;50.742;6.432;2023-10-08T00:46:07;99543.00;;;16.71;60.70
50226;BME280;36113;50.742;6.432;2023-10-08T00:48:54;99513.88;;;16.51;60.67
50226;BME280;36113;50.742;6.432;2023-10-08T00:51:21;99545.53;;;16.67;60.78
50226;BME280;36113;50.742;6.432;2023-10-08T00:53:56;99549.91;;;16.68;60.65
50226;BME280;36113;50.742;6.432;2023-10-08T00:56:28;99552.63;;;16.68;61.03
50226;BME280;36113;50.742;6.432;2023-10-08T00:59:11;99551.59;;;16.64;60.92
50226;BME280;36113;50.742;6.432;2023-10-08T01:01:42;99538.47;;;16.61;60.77
50226;BME280;36113;50.742;6.432;2023-10-08T01:04:15;99542.63;;;16.59;60.84
50226;BME280;36113;50.742;6.432;2023-10-08T01:06:41;99538.47;;;16.61;60.60
50226;BME280;36113;50.742;6.432;2023-10-08T01:09:06;99530.88;;;16.53;60.79
50226;BME280;36113;50.742;6.432;2023-10-08T01:11:44;99518.72;;;16.35;60.64
50226;BME280;36113;50.742;6.432;2023-10-08T01:14:18;99529.53;;;16.50;60.97
50226;BME280;36113;50.742;6.432;2023-10-08T01:16:46;99516.94;;;16.49;60.81
50226;BME280;36113;50.742;6.432;2023-10-08T01:19:17;99519.59;;;16.54;60.61
50226;BME280;36113;50.742;6.432;2023-10-08T01:21:44;99500.50;;;16.44;60.51
50226;BME280;36113;50.742;6.432;2023-10-08T01:24:10;99516.41;;;16.47;60.63
50226;BME280;36113;50.742;6.432;2023-10-08T01:26:39;99527.91;;;16.49;60.12
50226;BME280;36113;50.742;6.432;2023-10-08T01:29:08;99495.72;;;16.31;60.27
50226;BME280;36113;50.742;6.432;2023-10-08T01:31:34;99539.97;;;16.48;60.42
50226;BME280;36113;50.742;6.432;2023-10-08T01:34:01;99479.00;;;16.08;60.32
50226;BME280;36113;50.742;6.432;2023-10-08T01:36:30;99542.28;;;16.41;60.35
50226;BME280;36113;50.742;6.432;2023-10-08T01:38:56;99510.44;;;16.16;60.34
50226;BME280;36113;50.742;6.432;2023-10-08T01:41:22;99546.69;;;16.37;60.33
50226;BME280;36113;50.742;6.432;2023-10-08T01:43:54;99508.22;;;16.18;60.63
50226;BME280;36113;50.742;6.432;2023-10-08T01:46:20;99522.78;;;16.19;60.05
50226;BME280;36113;50.742;6.432;2023-10-08T01:48:47;99544.84;;;16.32;60.57
50226;BME280;36113;50.742;6.432;2023-10-08T01:51:14;99542.38;;;16.31;60.91
50226;BME280;36113;50.742;6.432;2023-10-08T01:53:53;99544.91;;;16.27;60.61
50226;BME280;36113;50.742;6.432;2023-10-08T01:56:23;99534.56;;;16.19;61.09
50226;BME280;36113;50.742;6.432;2023-10-08T01:58:49;99528.25;;;16.19;60.57
50226;BME280;36113;50.742;6.432;2023-10-08T02:01:19;99502.63;;;16.04;60.60
50226;BME280;36113;50.742;6.432;2023-10-08T02:03:45;99534.09;;;16.12;61.16
50226;BME280;36113;50.742;6.432;2023-10-08T02:06:10;99539.78;;;16.16;60.95
50226;BME280;36113;50.742;6.432;2023-10-08T02:08:37;99549.69;;;16.17;61.02
50226;BME280;36113;50.742;6.432;2023-10-08T02:11:03;99528.75;;;15.97;61.50
50226;BME280;36113;50.742;6.432;2023-10-08T02:13:28;99556.03;;;16.12;61.23
50226;BME280;36113;50.742;6.432;2023-10-08T02:15:54;99520.28;;;15.93;61.46
50226;BME280;36113;50.742;6.432;2023-10-08T02:18:20;99548.09;;;16.10;61.21
50226;BME280;36113;50.742;6.432;2023-10-08T02:20:48;99540.13;;;16.09;61.56
50226;BME280;36113;50.742;6.432;2023-10-08T02:23:13;99518.34;;;15.93;61.66
50226;BME280;36113;50.742;6.432;2023-10-08T02:25:39;99539.91;;;16.05;61.62
50226;BME280;36113;50.742;6.432;2023-10-08T02:28:08;99532.31;;;15.97;62.22
50226;BME280;36113;50.742;6.432;2023-10-08T02:30:38;99522.03;;;15.84;61.75
50226;BME280;36113;50.742;6.432;2023-10-08T02:33:05;99537.78;;;15.97;61.90
50226;BME280;36113;50.742;6.432;2023-10-08T02:35:42;99544.91;;;15.98;61.93
50226;BME280;36113;50.742;6.432;2023-10-08T02:38:12;99545.44;;;16.00;62.11
50226;BME280;36113;50.742;6.432;2023-10-08T02:40:42;99533.00;;;15.84;62.08
50226;BME280;36113;50.742;6.432;2023-10-08T02:43:12;99549.69;;;15.87;61.95
50226;BME280;36113;50.742;6.432;2023-10-08T02:45:39;99555.41;;;15.91;62.20
50226;BME280;36113;50.742;6.432;2023-10-08T02:48:08;99498.72;;;15.52;62.20
50226;BME280;36113;50.742;6.432;2023-10-08T02:50:40;99543.44;;;15.82;62.23
50226;BME280;36113;50.742;6.432;2023-10-08T02:53:07;99547.22;;;15.86;62.51
50226;BME280;36113;50.742;6.432;2023-10-08T02:55:43;99551.66;;;15.82;62.62
50226;BME280;36113;50.742;6.432;2023-10-08T02:58:14;99563.16;;;15.84;62.59
50226;BME280;36113;50.742;6.432;2023-10-08T03:00:45;99561.00;;;15.81;62.92
50226;BME280;36113;50.742;6.432;2023-10-08T03:03:15;99560.47;;;15.73;63.14
50226;BME280;36113;50.742;6.432;2023-10-08T03:05:43;99564.56;;;15.76;62.85
50226;BME280;36113;50.742;6.432;2023-10-08T03:08:09;99577.19;;;15.77;62.64
50226;BME280;36113;50.742;6.432;2023-10-08T03:10:37;99578.81;;;15.78;62.94
50226;BME280;36113;50.742;6.432;2023-10-08T03:13:03;99570.91;;;15.77;62.70
50226;BME280;36113;50.742;6.432;2023-10-08T03:15:33;99547.03;;;15.77;62.76
50226;BME280;36113;50.742;6.432;2023-10-08T03:18:06;99550.69;;;15.62;62.66
50226;BME280;36113;50.742;6.432;2023-10-08T03:20:36;99567.28;;;15.81;62.84
50226;BME280;36113;50.742;6.432;2023-10-08T03:23:09;99569.78;;;15.78;62.86
50226;BME280;36113;50.742;6.432;2023-10-08T03:25:54;99572.78;;;15.81;62.89
50226;BME280;36113;50.742;6.432;2023-10-08T03:28:29;99565.34;;;15.82;62.75
50226;BME280;36113;50.742;6.432;2023-10-08T03:30:57;99549.25;;;15.70;62.46
50226;BME280;36113;50.742;6.432;2023-10-08T03:33:34;99546.53;;;15.65;62.67
50226;BME280;36113;50.742;6.432;2023-10-08T03:36:09;99562.13;;;15.69;62.57
50226;BME280;36113;50.742;6.432;2023-10-08T03:38:39;99586.44;;;15.86;63.05
50226;BME280;36113;50.742;6.432;2023-10-08T03:41:15;99590.28;;;15.85;63.00
50226;BME280;36113;50.742;6.432;2023-10-08T03:43:44;99600.94;;;15.87;63.21
50226;BME280;36113;50.742;6.432;2023-10-08T03:46:19;99585.13;;;15.79;63.03
50226;BME280;36113;50.742;6.432;2023-10-08T03:48:47;99605.38;;;15.83;63.24
50226;BME280;36113;50.742;6.432;2023-10-08T03:51:16;99582.97;;;15.70;62.88
50226;BME280;36113;50.742;6.432;2023-10-08T03:53:44;99575.59;;;15.66;63.15
50226;BME280;36113;50.742;6.432;2023-10-08T03:56:30;99596.13;;;15.73;63.62
50226;BME280;36113;50.742;6.432;2023-10-08T03:58:59;99572.94;;;15.56;63.35
50226;BME280;36113;50.742;6.432;2023-10-08T04:01:46;99602.94;;;15.76;63.15
50226;BME280;36113;50.742;6.432;2023-10-08T04:04:14;99580.84;;;15.62;63.64
50226;BME280;36113;50.742;6.432;2023-10-08T04:06:40;99572.97;;;15.50;63.75
50226;BME280;36113;50.742;6.432;2023-10-08T04:09:13;99569.38;;;15.55;63.72
50226;BME280;36113;50.742;6.432;2023-10-08T04:11:45;99594.47;;;15.67;63.69
50226;BME280;36113;50.742;6.432;2023-10-08T04:14:13;99589.00;;;15.67;63.78
50226;BME280;36113;50.742;6.432;2023-10-08T04:16:41;99579.22;;;15.61;63.68
50226;BME280;36113;50.742;6.432;2023-10-08T04:19:07;99559.56;;;15.49;63.71
50226;BME280;36113;50.742;6.432;2023-10-08T04:21:33;99564.44;;;15.57;64.01
50226;BME280;36113;50.742;6.432;2023-10-08T04:24:02;99573.69;;;15.66;64.16
50226;BME280;36113;50.742;6.432;2023-10-08T04:26:30;99577.28;;;15.62;64.40
50226;BME280;36113;50.742;6.432;2023-10-08T04:28:58;99577.03;;;15.58;64.01
50226;BME280;36113;50.742;6.432;2023-10-08T04:31:26;99585.81;;;15.55;64.21
50226;BME280;36113;50.742;6.432;2023-10-08T04:33:54;99583.09;;;15.55;64.41
50226;BME280;36113;50.742;6.432;2023-10-08T04:36:20;99588.56;;;15.55;64.34
50226;BME280;36113;50.742;6.432;2023-10-08T04:38:46;99582.59;;;15.48;64.40
50226;BME280;36113;50.742;6.432;2023-10-08T04:41:20;99601.13;;;15.61;64.78
50226;BME280;36113;50.742;6.432;2023-10-08T04:43:52;99606.34;;;15.58;64.54
50226;BME280;36113;50.742;6.432;2023-10-08T04:46:20;99605.28;;;15.53;64.54
50226;BME280;36113;50.742;6.432;2023-10-08T04:49:04;99610.50;;;15.55;64.77
50226;BME280;36113;50.742;6.432;2023-10-08T04:51:36;99622.78;;;15.58;64.56
50226;BME280;36113;50.742;6.432;2023-10-08T04:54:12;99607.28;;;15.43;65.09
50226;BME280;36113;50.742;6.432;2023-10-08T04:56:42;99625.31;;;15.49;65.17
50226;BME280;36113;50.742;6.432;2023-10-08T04:59:07;99618.50;;;15.46;64.84
50226;BME280;36113;50.742;6.432;2023-10-08T05:01:36;99610.31;;;15.41;64.87
50226;BME280;36113;50.742;6.432;2023-10-08T05:04:22;99628.63;;;15.46;65.30
50226;BME280;36113;50.742;6.432;2023-10-08T05:06:52;99617.13;;;15.44;65.17
50226;BME280;36113;50.742;6.432;2023-10-08T05:09:42;99620.41;;;15.46;65.26
50226;BME280;36113;50.742;6.432;2023-10-08T05:12:31;99590.16;;;15.22;65.25
50226;BME280;36113;50.742;6.432;2023-10-08T05:15:31;99627.56;;;15.42;65.78
50226;BME280;36113;50.742;6.432;2023-10-08T05:18:07;99622.09;;;15.42;65.57
50226;BME280;36113;50.742;6.432;2023-10-08T05:20:49;99613.91;;;15.37;66.26
50226;BME280;36113;50.742;6.432;2023-10-08T05:23:15;99582.53;;;15.19;66.21
50226;BME280;36113;50.742;6.432;2023-10-08T05:25:49;99583.06;;;15.16;66.10
50226;BME280;36113;50.742;6.432;2023-10-08T05:28:31;99631.75;;;15.29;66.62
50226;BME280;36113;50.742;6.432;2023-10-08T05:31:07;99611.53;;;15.20;66.65
50226;BME280;36113;50.742;6.432;2023-10-08T05:33:38;99635.88;;;15.26;66.67
50226;BME280;36113;50.742;6.432;2023-10-08T05:36:39;99618.91;;;15.24;67.01
50226;BME280;36113;50.742;6.432;2023-10-08T05:39:23;99621.94;;;15.18;67.17
50226;BME280;36113;50.742;6.432;2023-10-08T05:42:03;99651.81;;;15.19;67.55
50226;BME280;36113;50.742;6.432;2023-10-08T05:44:40;99628.31;;;15.03;67.12
50226;BME280;36113;50.742;6.432;2023-10-08T05:47:10;99643.88;;;15.13;67.21
50226;BME280;36113;50.742;6.432;2023-10-08T05:50:04;99633.75;;;15.13;67.59
50226;BME280;36113;50.742;6.432;2023-10-08T05:52:46;99621.78;;;14.94;68.00
50226;BME280;36113;50.742;6.432;2023-10-08T05:55:24;99622.91;;;14.93;68.28
50226;BME280;36113;50.742;6.432;2023-10-08T05:58:00;99622.34;;;14.90;68.28
50226;BME280;36113;50.742;6.432;2023-10-08T06:00:43;99609.78;;;14.84;67.80
50226;BME280;36113;50.742;6.432;2023-10-08T06:03:15;99627.78;;;14.96;68.08
50226;BME280;36113;50.742;6.432;2023-10-08T06:06:00;99626.47;;;14.83;68.32
50226;BME280;36113;50.742;6.432;2023-10-08T06:08:48;99632.53;;;14.80;68.67
50226;BME280;36113;50.742;6.432;2023-10-08T06:11:20;99664.22;;;14.91;68.84
50226;BME280;36113;50.742;6.432;2023-10-08T06:14:05;99656.59;;;14.88;69.24
50226;BME280;36113;50.742;6.432;2023-10-08T06:16:53;99668.63;;;14.87;69.64
50226;BME280;36113;50.742;6.432;2023-10-08T06:19:41;99650.31;;;14.72;69.35
50226;BME280;36113;50.742;6.432;2023-10-08T06:22:08;99673.56;;;14.90;69.38
50226;BME280;36113;50.742;6.432;2023-10-08T06:24:33;99677.66;;;14.93;69.25
50226;BME280;36113;50.742;6.432;2023-10-08T06:27:03;99679.84;;;14.90;69.38
50226;BME280;36113;50.742;6.432;2023-10-08T06:29:30;99657.44;;;14.73;69.71
50226;BME280;36113;50.742;6.432;2023-10-08T06:31:57;99691.03;;;14.94;69.67
50226;BME280;36113;50.742;6.432;2023-10-08T06:34:23;99670.00;;;14.84;69.83
50226;BME280;36113;50.742;6.432;2023-10-08T06:36:53;99683.97;;;14.88;69.96
50226;BME280;36113;50.742;6.432;2023-10-08T06:39:25;99692.94;;;14.99;69.52
50226;BME280;36113;50.742;6.432;2023-10-08T06:41:54;99701.16;;;15.04;69.50
50226;BME280;36113;50.742;6.432;2023-10-08T06:44:22;99665.63;;;14.83;69.65
50226;BME280;36113;50.742;6.432;2023-10-08T06:46:47;99703.06;;;15.08;69.76
50226;BME280;36113;50.742;6.432;2023-10-08T06:49:13;99708.53;;;15.08;69.46
50226;BME280;36113;50.742;6.432;2023-10-08T06:51:39;99688.06;;;14.90;69.79
50226;BME280;36113;50.742;6.432;2023-10-08T06:54:06;99670.28;;;14.88;69.50
50226;BME280;36113;50.742;6.432;2023-10-08T06:56:35;99681.75;;;14.95;69.74
50226;BME280;36113;50.742;6.432;2023-10-08T06:59:00;99698.97;;;15.06;69.78
50226;BME280;36113;50.742;6.432;2023-10-08T07:01:26;99712.34;;;15.07;69.83
50226;BME280;36113;50.742;6.432;2023-10-08T07:04:04;99712.88;;;15.09;69.87
50226;BME280;36113;50.742;6.432;2023-10-08T07:06:32;99726.31;;;15.11;69.80
50226;BME280;36113;50.742;6.432;2023-10-08T07:09:00;99732.34;;;15.13;69.76
50226;BME280;36113;50.742;6.432;2023-10-08T07:11:30;99737.53;;;15.09;70.37
50226;BME280;36113;50.742;6.432;2023-10-08T07:14:00;99689.97;;;14.90;70.14
50226;BME280;36113;50.742;6.432;2023-10-08T07:16:25;99723.00;;;15.14;70.11
50226;BME280;36113;50.742;6.432;2023-10-08T07:18:53;99711.75;;;15.21;70.37
50226;BME280;36113;50.742;6.432;2023-10-08T07:21:20;99664.44;;;15.05;70.32
50226;BME280;36113;50.742;6.432;2023-10-08T07:24:04;99692.59;;;15.26;70.58
50226;BME280;36113;50.742;6.432;2023-10-08T07:26:35;99691.97;;;15.39;69.94
50226;BME280;36113;50.742;6.432;2023-10-08T07:29:05;99677.97;;;15.41;70.17
50226;BME280;36113;50.742;6.432;2023-10-08T07:31:34;99654.47;;;15.35;69.85
50226;BME280;36113;50.742;6.432;2023-10-08T07:34:01;99681.47;;;15.51;69.73
50226;BME280;36113;50.742;6.432;2023-10-08T07:36:42;99674.59;;;15.59;70.12
50226;BME280;36113;50.742;6.432;2023-10-08T07:39:08;99667.94;;;15.70;70.37
50226;BME280;36113;50.742;6.432;2023-10-08T07:41:45;99672.22;;;15.87;69.74
50226;BME280;36113;50.742;6.432;2023-10-08T07:44:12;99674.09;;;15.97;69.45
50226;BME280;36113;50.742;6.432;2023-10-08T07:46:37;99662.69;;;16.13;69.11
50226;BME280;36113;50.742;6.432;2023-10-08T07:49:03;99665.91;;;16.26;68.97
50226;BME280;36113;50.742;6.432;2023-10-08T07:51:29;99650.19;;;16.31;68.68
50226;BME280;36113;50.742;6.432;2023-10-08T07:53:54;99647.63;;;16.40;68.15
50226;BME280;36113;50.742;6.432;2023-10-08T07:56:21;99675.09;;;16.69;67.78
50226;BME280;36113;50.742;6.432;2023-10-08T07:58:47;99645.16;;;16.68;67.59
50226;BME280;36113;50.742;6.432;2023-10-08T08:01:13;99679.84;;;16.88;66.97
50226;BME280;36113;50.742;6.432;2023-10-08T08:03:40;99677.84;;;16.93;67.31
50226;BME280;36113;50.742;6.432;2023-10-08T08:06:06;99683.41;;;17.12;67.77
50226;BME280;36113;50.742;6.432;2023-10-08T08:08:36;99688.72;;;17.28;66.99
50226;BME280;36113;50.742;6.432;2023-10-08T08:11:03;99677.13;;;17.31;66.99
50226;BME280;36113;50.742;6.432;2023-10-08T08:13:39;99635.81;;;17.17;66.83
50226;BME280;36113;50.742;6.432;2023-10-08T08:16:07;99651.50;;;17.35;66.89
50226;BME280;36113;50.742;6.432;2023-10-08T08:18:46;99664.44;;;17.54;66.35
50226;BME280;36113;50.742;6.432;2023-10-08T08:21:12;99681.06;;;17.87;66.24
50226;BME280;36113;50.742;6.432;2023-10-08T08:23:44;99673.66;;;17.82;65.99
50226;BME280;36113;50.742;6.432;2023-10-08T08:26:33;99678.56;;;18.04;65.50
50226;BME280;36113;50.742;6.432;2023-10-08T08:29:05;99676.91;;;18.22;65.31
50226;BME280;36113;50.742;6.432;2023-10-08T08:31:34;99667.56;;;18.37;64.82
50226;BME280;36113;50.742;6.432;2023-10-08T08:34:01;99668.47;;;18.46;64.38
50226;BME280;36113;50.742;6.432;2023-10-08T08:36:29;99676.56;;;18.56;63.88
50226;BME280;36113;50.742;6.432;2023-10-08T08:38:55;99660.97;;;18.52;63.58
50226;BME280;36113;50.742;6.432;2023-10-08T08:41:20;99667.09;;;18.63;64.34
50226;BME280;36113;50.742;6.432;2023-10-08T08:43:50;99660.53;;;18.77;63.99
50226;BME280;36113;50.742;6.432;2023-10-08T08:46:25;99678.66;;;18.92;63.57
50226;BME280;36113;50.742;6.432;2023-10-08T08:48:52;99693.19;;;18.84;64.49
50226;BME280;36113;50.742;6.432;2023-10-08T08:51:19;99692.41;;;18.65;64.20
50226;BME280;36113;50.742;6.432;2023-10-08T08:53:47;99682.75;;;18.81;63.96
50226;BME280;36113;50.742;6.432;2023-10-08T08:56:12;99699.28;;;18.81;64.20
50226;BME280;36113;50.742;6.432;2023-10-08T08:58:38;99669.88;;;18.90;64.00
50226;BME280;36113;50.742;6.432;2023-10-08T09:01:07;99673.75;;;19.17;63.21
50226;BME280;36113;50.742;6.432;2023-10-08T09:03:37;99679.47;;;19.34;62.83
50226;BME280;36113;50.742;6.432;2023-10-08T09:06:04;99703.91;;;19.63;62.13
50226;BME280;36113;50.742;6.432;2023-10-08T09:08:34;99700.69;;;19.48;61.97
50226;BME280;36113;50.742;6.432;2023-10-08T09:10:59;99715.84;;;19.09;63.17
50226;BME280;36113;50.742;6.432;2023-10-08T09:13:26;99715.22;;;18.84;64.25
50226;BME280;36113;50.742;6.432;2023-10-08T09:15:51;99727.44;;;18.78;65.13
50226;BME280;36113;50.742;6.432;2023-10-08T09:18:17;99731.22;;;18.82;64.92
50226;BME280;36113;50.742;6.432;2023-10-08T09:20:42;99736.78;;;18.77;64.87
50226;BME280;36113;50.742;6.432;2023-10-08T09:23:12;99735.94;;;18.63;64.70
50226;BME280;36113;50.742;6.432;2023-10-08T09:25:38;99735.53;;;18.55;65.79
50226;BME280;36113;50.742;6.432;2023-10-08T09:28:05;99740.78;;;18.38;65.54
50226;BME280;36113;50.742;6.432;2023-10-08T09:30:32;99738.97;;;18.47;65.55
50226;BME280;36113;50.742;6.432;2023-10-08T09:33:02;99740.97;;;18.74;65.17
50226;BME280;36113;50.742;6.432;2023-10-08T09:35:29;99757.63;;;18.83;64.76
50226;BME280;36113;50.742;6.432;2023-10-08T09:37:56;99755.81;;;18.59;65.47
50226;BME280;36113;50.742;6.432;2023-10-08T09:40:22;99757.03;;;18.53;65.72
50226;BME280;36113;50.742;6.432;2023-10-08T09:42:47;99767.53;;;18.51;66.38
50226;BME280;36113;50.742;6.432;2023-10-08T09:45:13;99763.78;;;18.61;65.58
50226;BME280;36113;50.742;6.432;2023-10-08T09:47:41;99769.09;;;18.38;67.09
50226;BME280;36113;50.742;6.432;2023-10-08T09:50:07;99766.44;;;18.66;65.67
50226;BME280;36113;50.742;6.432;2023-10-08T09:52:39;99767.56;;;18.65;65.73
50226;BME280;36113;50.742;6.432;2023-10-08T09:55:09;99780.25;;;18.47;65.96
50226;BME280;36113;50.742;6.432;2023-10-08T09:57:37;99785.47;;;18.11;66.58
50226;BME280;36113;50.742;6.432;2023-10-08T10:00:05;99783.47;;;18.16;67.74
50226;BME280;36113;50.742;6.432;2023-10-08T10:02:43;99791.22;;;18.33;66.86
50226;BME280;36113;50.742;6.432;2023-10-08T10:05:12;99786.16;;;18.22;67.07
50226;BME280;36113;50.742;6.432;2023-10-08T10:07:38;99783.63;;;18.06;67.69
50226;BME280;36113;50.742;6.432;2023-10-08T10:10:29;99785.88;;;18.23;68.40
50226;BME280;36113;50.742;6.432;2023-10-08T10:13:09;99784.06;;;18.51;66.74
50226;BME280;36113;50.742;6.432;2023-10-08T10:15:38;99787.38;;;18.48;66.32
50226;BME280;36113;50.742;6.432;2023-10-08T10:20:38;99793.81;;;18.25;67.38
50226;BME280;36113;50.742;6.432;2023-10-08T10:23:24;99787.28;;;18.02;67.63
50226;BME280;36113;50.742;6.432;2023-10-08T10:25:50;99785.44;;;18.16;68.42
50226;BME280;36113;50.742;6.432;2023-10-08T10:28:21;99797.25;;;18.35;67.23
50226;BME280;36113;50.742;6.432;2023-10-08T10:30:47;99792.38;;;18.46;67.09
50226;BME280;36113;50.742;6.432;2023-10-08T10:33:13;99786.63;;;18.61;66.33
50226;BME280;36113;50.742;6.432;2023-10-08T10:35:38;99783.41;;;18.73;65.96
50226;BME280;36113;50.742;6.432;2023-10-08T10:38:05;99788.97;;;18.68;66.38
50226;BME280;36113;50.742;6.432;2023-10-08T10:40:31;99784.50;;;18.72;66.10
50226;BME280;36113;50.742;6.432;2023-10-08T10:43:06;99786.47;;;19.05;65.33
50226;BME280;36113;50.742;6.432;2023-10-08T10:45:32;99782.97;;;18.99;64.84
50226;BME280;36113;50.742;6.432;2023-10-08T10:48:01;99782.72;;;18.81;65.70
50226;BME280;36113;50.742;6.432;2023-10-08T10:50:38;99775.88;;;18.79;64.95
50226;BME280;36113;50.742;6.432;2023-10-08T10:53:14;99774.31;;;18.73;65.98
50226;BME280;36113;50.742;6.432;2023-10-08T10:55:39;99781.72;;;18.77;65.94
50226;BME280;36113;50.742;6.432;2023-10-08T10:58:13;99780.66;;;18.73;65.56
50226;BME280;36113;50.742;6.432;2023-10-08T11:00:42;99777.84;;;18.78;66.00
50226;BME280;36113;50.742;6.432;2023-10-08T11:03:07;99783.78;;;18.99;65.05
50226;BME280;36113;50.742;6.432;2023-10-08T11:05:41;99782.78;;;19.23;64.49
50226;BME280;36113;50.742;6.432;2023-10-08T11:08:12;99777.50;;;19.40;63.92
50226;BME280;36113;50.742;6.432;2023-10-08T11:10:39;99771.38;;;19.16;64.49
50226;BME280;36113;50.742;6.432;2023-10-08T11:13:16;99767.66;;;19.48;63.58
50226;BME280;36113;50.742;6.432;2023-10-08T11:15:42;99757.25;;;19.59;63.17
50226;BME280;36113;50.742;6.432;2023-10-08T11:18:10;99757.00;;;19.97;62.63
50226;BME280;36113;50.742;6.432;2023-10-08T11:20:36;99746.13;;;20.14;62.01
50226;BME280;36113;50.742;6.432;2023-10-08T11:23:05;99743.78;;;20.30;61.69
50226;BME280;36113;50.742;6.432;2023-10-08T11:25:52;99739.09;;;20.53;61.17
50226;BME280;36113;50.742;6.432;2023-10-08T11:28:17;99755.81;;;20.48;60.66
50226;BME280;36113;50.742;6.432;2023-10-08T11:30:43;99774.97;;;20.08;61.63
50226;BME280;36113;50.742;6.432;2023-10-08T11:33:12;99771.78;;;19.51;63.92
50226;BME280;36113;50.742;6.432;2023-10-08T11:38:25;99763.59;;;19.32;65.27
50226;BME280;36113;50.742;6.432;2023-10-08T11:40:52;99751.16;;;19.20;65.32
50226;BME280;36113;50.742;6.432;2023-10-08T11:43:22;99740.13;;;19.34;65.47
50226;BME280;36113;50.742;6.432;2023-10-08T11:45:47;99742.66;;;19.44;65.12
50226;BME280;36113;50.742;6.432;2023-10-08T11:48:15;99733.69;;;19.53;64.60
50226;BME280;36113;50.742;6.432;2023-10-08T11:51:01;99743.06;;;19.52;65.30
50226;BME280;36113;50.742;6.432;2023-10-08T11:53:30;99742.03;;;19.48;65.10
50226;BME280;36113;50.742;6.432;2023-10-08T11:55:56;99751.53;;;19.41;64.99
50226;BME280;36113;50.742;6.432;2023-10-08T11:58:22;99746.56;;;19.16;65.85
50226;BME280;36113;50.742;6.432;2023-10-08T12:01:00;99753.97;;;19.01;66.96
50226;BME280;36113;50.742;6.432;2023-10-08T12:03:28;99752.50;;;18.76;66.88
50226;BME280;36113;50.742;6.432;2023-10-08T12:05:54;99743.72;;;18.74;67.73
50226;BME280;36113;50.742;6.432;2023-10-08T12:08:24;99739.00;;;18.75;66.48
50226;BME280;36113;50.742;6.432;2023-10-08T12:10:52;99732.16;;;19.05;66.06
50226;BME280;36113;50.742;6.432;2023-10-08T12:13:19;99738.88;;;19.13;65.80
50226;BME280;36113;50.742;6.432;2023-10-08T12:15:49;99728.19;;;19.25;65.34
50226;BME280;36113;50.742;6.432;2023-10-08T12:18:15;99734.28;;;19.50;64.93
50226;BME280;36113;50.742;6.432;2023-10-08T12:20:42;99725.88;;;19.69;63.95
50226;BME280;36113;50.742;6.432;2023-10-08T12:23:12;99722.91;;;19.65;63.65
50226;BME280;36113;50.742;6.432;2023-10-08T12:25:50;99722.75;;;19.48;64.57
50226;BME280;36113;50.742;6.432;2023-10-08T12:28:16;99720.19;;;19.51;64.24
50226;BME280;36113;50.742;6.432;2023-10-08T12:30:44;99717.22;;;19.75;63.46
50226;BME280;36113;50.742;6.432;2023-10-08T12:33:09;99709.91;;;19.93;63.35
50226;BME280;36113;50.742;6.432;2023-10-08T12:35:38;99704.41;;;20.16;62.61
50226;BME280;36113;50.742;6.432;2023-10-08T12:38:03;99709.22;;;20.10;62.42
50226;BME280;36113;50.742;6.432;2023-10-08T12:40:30;99716.00;;;20.04;62.90
50226;BME280;36113;50.742;6.432;2023-10-08T12:43:07;99705.72;;;19.96;62.61
50226;BME280;36113;50.742;6.432;2023-10-08T12:45:32;99712.19;;;20.14;62.51
50226;BME280;36113;50.742;6.432;2023-10-08T12:47:57;99708.66;;;20.44;61.44
50226;BME280;36113;50.742;6.432;2023-10-08T12:50:23;99707.97;;;20.39;62.18
50226;BME280;36113;50.742;6.432;2023-10-08T12:52:57;99716.13;;;20.66;61.07
50226;BME280;36113;50.742;6.432;2023-10-08T12:55:22;99709.91;;;20.92;61.17
50226;BME280;36113;50.742;6.432;2023-10-08T12:57:52;99710.19;;;20.82;59.97
50226;BME280;36113;50.742;6.432;2023-10-08T13:00:23;99712.72;;;20.47;61.47
50226;BME280;36113;50.742;6.432;2023-10-08T13:02:49;99722.31;;;20.72;61.12
50226;BME280;36113;50.742;6.432;2023-10-08T13:05:18;99718.63;;;20.54;60.79
50226;BME280;36113;50.742;6.432;2023-10-08T13:07:51;99716.69;;;20.77;60.53
50226;BME280;36113;50.742;6.432;2023-10-08T13:10:16;99708.69;;;21.16;60.45
50226;BME280;36113;50.742;6.432;2023-10-08T13:12:41;99705.09;;;21.06;59.32
50226;BME280;36113;50.742;6.432;2023-10-08T13:15:07;99700.91;;;21.18;59.81
50226;BME280;36113;50.742;6.432;2023-10-08T13:17:32;99691.44;;;21.50;59.51
50226;BME280;36113;50.742;6.432;2023-10-08T13:19:57;99692.59;;;21.75;58.57
50226;BME280;36113;50.742;6.432;2023-10-08T13:22:23;99681.84;;;21.74;58.23